Terminal Aerodrome Forecast
Issued by NWS Houston/Galveston, TX

Home | Current Version | Previous Version | Text Only | Print | Product List | Glossary On
Versions: 1 2 3 4 5 6 7 8 9 10 11 12 13 14 15 16 17 18 19 20 21 22 23 24 25 26
000
FTUS44 KHGX 301125
TAFGLS
TAF
KGLS 301125Z 3012/0112 18015KT P6SM VCSH OVC026
      TEMPO 3014/3017 5SM TSRA BR BKN012CB
     FM301700 14010KT P6SM VCTS BKN015CB
     FM302100 17010KT P6SM SCT025 SCT080
     FM010600 07007KT 6SM BR SCT007 BKN015=

USA.gov is the U.S. government's official web portal to all federal, state and local government web resources and services.